sensor_id;sensor_type;location;lat;lon;timestamp;P1;durP1;ratioP1;P2;durP2;ratioP2
57111;SDS011;42992;49.084;19.300;2023-07-13T00:00:09;9.20;;;4.63;;
57111;SDS011;42992;49.084;19.300;2023-07-13T00:02:35;10.63;;;4.40;;
57111;SDS011;42992;49.084;19.300;2023-07-13T00:05:01;8.18;;;4.95;;
57111;SDS011;42992;49.084;19.300;2023-07-13T00:07:26;12.38;;;4.60;;
57111;SDS011;42992;49.084;19.300;2023-07-13T00:09:51;10.25;;;4.88;;
57111;SDS011;42992;49.084;19.300;2023-07-13T00:12:24;8.25;;;4.45;;
57111;SDS011;42992;49.084;19.300;2023-07-13T00:14:49;8.02;;;4.30;;
57111;SDS011;42992;49.084;19.300;2023-07-13T00:17:15;8.23;;;5.40;;
57111;SDS011;42992;49.084;19.300;2023-07-13T00:19:40;16.05;;;5.00;;
57111;SDS011;42992;49.084;19.300;2023-07-13T00:22:06;10.15;;;4.97;;
57111;SDS011;42992;49.084;19.300;2023-07-13T00:24:31;12.85;;;5.28;;
57111;SDS011;42992;49.084;19.300;2023-07-13T00:26:56;7.43;;;5.03;;
57111;SDS011;42992;49.084;19.300;2023-07-13T00:29:22;10.73;;;5.28;;
57111;SDS011;42992;49.084;19.300;2023-07-13T00:31:47;8.55;;;4.80;;
57111;SDS011;42992;49.084;19.300;2023-07-13T00:34:12;9.15;;;5.60;;
57111;SDS011;42992;49.084;19.300;2023-07-13T00:36:37;9.55;;;5.13;;
57111;SDS011;42992;49.084;19.300;2023-07-13T00:39:03;13.80;;;5.30;;
57111;SDS011;42992;49.084;19.300;2023-07-13T00:41:29;12.38;;;5.32;;
57111;SDS011;42992;49.084;19.300;2023-07-13T00:43:54;7.63;;;5.25;;
57111;SDS011;42992;49.084;19.300;2023-07-13T00:46:21;8.88;;;5.03;;
57111;SDS011;42992;49.084;19.300;2023-07-13T00:48:47;12.30;;;5.30;;
57111;SDS011;42992;49.084;19.300;2023-07-13T00:51:13;7.05;;;5.32;;
57111;SDS011;42992;49.084;19.300;2023-07-13T00:53:40;11.27;;;5.28;;
57111;SDS011;42992;49.084;19.300;2023-07-13T00:56:05;8.88;;;5.25;;
57111;SDS011;42992;49.084;19.300;2023-07-13T00:58:31;12.00;;;5.28;;
57111;SDS011;42992;49.084;19.300;2023-07-13T01:00:57;11.63;;;5.43;;
57111;SDS011;42992;49.084;19.300;2023-07-13T01:03:22;10.40;;;4.90;;
57111;SDS011;42992;49.084;19.300;2023-07-13T01:08:19;11.48;;;4.85;;
57111;SDS011;42992;49.084;19.300;2023-07-13T01:10:52;13.45;;;4.60;;
57111;SDS011;42992;49.084;19.300;2023-07-13T01:13:17;11.25;;;4.72;;
57111;SDS011;42992;49.084;19.300;2023-07-13T01:15:44;10.30;;;4.53;;
57111;SDS011;42992;49.084;19.300;2023-07-13T01:18:11;10.63;;;4.72;;
57111;SDS011;42992;49.084;19.300;2023-07-13T01:20:37;7.38;;;4.60;;
57111;SDS011;42992;49.084;19.300;2023-07-13T01:23:03;6.80;;;4.20;;
57111;SDS011;42992;49.084;19.300;2023-07-13T01:25:29;8.10;;;4.50;;
57111;SDS011;42992;49.084;19.300;2023-07-13T01:27:54;9.18;;;4.70;;
57111;SDS011;42992;49.084;19.300;2023-07-13T01:30:19;7.45;;;4.40;;
57111;SDS011;42992;49.084;19.300;2023-07-13T01:32:45;9.30;;;4.68;;
57111;SDS011;42992;49.084;19.300;2023-07-13T01:35:10;11.27;;;5.45;;
57111;SDS011;42992;49.084;19.300;2023-07-13T01:37:37;12.50;;;5.75;;
57111;SDS011;42992;49.084;19.300;2023-07-13T01:40:03;13.88;;;6.43;;
57111;SDS011;42992;49.084;19.300;2023-07-13T01:42:29;11.70;;;6.13;;
57111;SDS011;42992;49.084;19.300;2023-07-13T01:44:54;13.45;;;5.78;;
57111;SDS011;42992;49.084;19.300;2023-07-13T01:47:20;12.82;;;6.00;;
57111;SDS011;42992;49.084;19.300;2023-07-13T01:49:45;13.18;;;5.25;;
57111;SDS011;42992;49.084;19.300;2023-07-13T01:52:12;12.30;;;5.13;;
57111;SDS011;42992;49.084;19.300;2023-07-13T01:54:37;7.93;;;4.25;;
57111;SDS011;42992;49.084;19.300;2023-07-13T01:57:02;10.07;;;4.78;;
57111;SDS011;42992;49.084;19.300;2023-07-13T01:59:28;9.63;;;5.03;;
57111;SDS011;42992;49.084;19.300;2023-07-13T02:01:57;10.13;;;4.60;;
57111;SDS011;42992;49.084;19.300;2023-07-13T02:04:22;7.65;;;4.40;;
57111;SDS011;42992;49.084;19.300;2023-07-13T02:06:47;9.98;;;3.65;;
57111;SDS011;42992;49.084;19.300;2023-07-13T02:09:13;7.72;;;3.50;;
57111;SDS011;42992;49.084;19.300;2023-07-13T02:11:38;7.70;;;3.97;;
57111;SDS011;42992;49.084;19.300;2023-07-13T02:14:03;7.35;;;3.60;;
57111;SDS011;42992;49.084;19.300;2023-07-13T02:16:29;8.23;;;3.42;;
57111;SDS011;42992;49.084;19.300;2023-07-13T02:18:54;5.95;;;3.22;;
57111;SDS011;42992;49.084;19.300;2023-07-13T02:21:20;11.30;;;4.25;;
57111;SDS011;42992;49.084;19.300;2023-07-13T02:23:46;10.93;;;5.47;;
57111;SDS011;42992;49.084;19.300;2023-07-13T02:26:11;10.27;;;5.90;;
57111;SDS011;42992;49.084;19.300;2023-07-13T02:28:36;11.07;;;5.75;;
57111;SDS011;42992;49.084;19.300;2023-07-13T02:31:08;12.60;;;5.13;;
57111;SDS011;42992;49.084;19.300;2023-07-13T02:33:34;10.82;;;4.78;;
57111;SDS011;42992;49.084;19.300;2023-07-13T02:35:59;7.60;;;4.15;;
57111;SDS011;42992;49.084;19.300;2023-07-13T02:38:24;7.72;;;3.78;;
57111;SDS011;42992;49.084;19.300;2023-07-13T02:40:50;8.40;;;3.67;;
57111;SDS011;42992;49.084;19.300;2023-07-13T02:43:15;9.30;;;3.95;;
57111;SDS011;42992;49.084;19.300;2023-07-13T02:45:47;5.90;;;3.67;;
57111;SDS011;42992;49.084;19.300;2023-07-13T02:48:13;8.77;;;4.13;;
57111;SDS011;42992;49.084;19.300;2023-07-13T02:50:38;8.70;;;3.90;;
57111;SDS011;42992;49.084;19.300;2023-07-13T02:53:03;10.55;;;3.60;;
57111;SDS011;42992;49.084;19.300;2023-07-13T02:55:29;6.20;;;3.40;;
57111;SDS011;42992;49.084;19.300;2023-07-13T02:57:54;7.18;;;2.92;;
57111;SDS011;42992;49.084;19.300;2023-07-13T03:00:19;6.43;;;2.70;;
57111;SDS011;42992;49.084;19.300;2023-07-13T03:02:44;6.35;;;3.08;;
57111;SDS011;42992;49.084;19.300;2023-07-13T03:05:10;7.18;;;3.33;;
57111;SDS011;42992;49.084;19.300;2023-07-13T03:07:38;5.03;;;2.70;;
57111;SDS011;42992;49.084;19.300;2023-07-13T03:10:03;6.75;;;3.47;;
57111;SDS011;42992;49.084;19.300;2023-07-13T03:12:28;10.15;;;3.40;;
57111;SDS011;42992;49.084;19.300;2023-07-13T03:14:54;7.38;;;3.28;;
57111;SDS011;42992;49.084;19.300;2023-07-13T03:17:19;7.65;;;3.72;;
57111;SDS011;42992;49.084;19.300;2023-07-13T03:19:44;6.50;;;3.30;;
57111;SDS011;42992;49.084;19.300;2023-07-13T03:22:09;6.85;;;3.40;;
57111;SDS011;42992;49.084;19.300;2023-07-13T03:24:35;5.82;;;3.88;;
57111;SDS011;42992;49.084;19.300;2023-07-13T03:27:01;6.75;;;3.67;;
57111;SDS011;42992;49.084;19.300;2023-07-13T03:29:26;6.85;;;3.63;;
57111;SDS011;42992;49.084;19.300;2023-07-13T03:31:52;19.88;;;14.40;;
57111;SDS011;42992;49.084;19.300;2023-07-13T03:34:17;7.88;;;4.30;;
57111;SDS011;42992;49.084;19.300;2023-07-13T03:36:42;7.25;;;4.35;;
57111;SDS011;42992;49.084;19.300;2023-07-13T03:39:08;10.10;;;3.55;;
57111;SDS011;42992;49.084;19.300;2023-07-13T03:41:34;7.43;;;3.75;;
57111;SDS011;42992;49.084;19.300;2023-07-13T03:43:59;8.70;;;4.00;;
57111;SDS011;42992;49.084;19.300;2023-07-13T03:46:24;9.00;;;3.50;;
57111;SDS011;42992;49.084;19.300;2023-07-13T03:48:49;7.57;;;3.90;;
57111;SDS011;42992;49.084;19.300;2023-07-13T03:51:15;5.22;;;3.60;;
57111;SDS011;42992;49.084;19.300;2023-07-13T03:53:42;7.53;;;4.20;;
57111;SDS011;42992;49.084;19.300;2023-07-13T03:56:08;5.82;;;3.75;;
57111;SDS011;42992;49.084;19.300;2023-07-13T03:58:37;5.93;;;3.72;;
57111;SDS011;42992;49.084;19.300;2023-07-13T04:01:04;7.53;;;3.65;;
57111;SDS011;42992;49.084;19.300;2023-07-13T04:03:30;7.20;;;3.60;;
57111;SDS011;42992;49.084;19.300;2023-07-13T04:05:58;5.13;;;3.22;;
57111;SDS011;42992;49.084;19.300;2023-07-13T04:08:25;7.53;;;4.10;;
57111;SDS011;42992;49.084;19.300;2023-07-13T04:10:51;5.78;;;3.60;;
57111;SDS011;42992;49.084;19.300;2023-07-13T04:13:16;6.13;;;3.63;;
57111;SDS011;42992;49.084;19.300;2023-07-13T04:15:41;8.50;;;4.22;;
57111;SDS011;42992;49.084;19.300;2023-07-13T04:18:06;6.65;;;3.92;;
57111;SDS011;42992;49.084;19.300;2023-07-13T04:20:31;6.97;;;3.85;;
57111;SDS011;42992;49.084;19.300;2023-07-13T04:22:57;7.13;;;4.03;;
57111;SDS011;42992;49.084;19.300;2023-07-13T04:25:23;7.72;;;4.03;;
57111;SDS011;42992;49.084;19.300;2023-07-13T04:27:52;9.85;;;4.15;;
57111;SDS011;42992;49.084;19.300;2023-07-13T04:30:17;7.63;;;4.57;;
57111;SDS011;42992;49.084;19.300;2023-07-13T04:32:42;8.50;;;4.30;;
57111;SDS011;42992;49.084;19.300;2023-07-13T04:35:07;10.07;;;5.87;;
57111;SDS011;42992;49.084;19.300;2023-07-13T04:37:33;10.75;;;5.65;;
57111;SDS011;42992;49.084;19.300;2023-07-13T04:39:58;8.98;;;5.35;;
57111;SDS011;42992;49.084;19.300;2023-07-13T04:42:24;9.00;;;5.30;;
57111;SDS011;42992;49.084;19.300;2023-07-13T04:44:49;8.23;;;4.90;;
57111;SDS011;42992;49.084;19.300;2023-07-13T04:47:15;8.50;;;4.13;;
57111;SDS011;42992;49.084;19.300;2023-07-13T04:49:40;7.15;;;4.20;;
57111;SDS011;42992;49.084;19.300;2023-07-13T04:52:06;8.70;;;4.10;;
57111;SDS011;42992;49.084;19.300;2023-07-13T04:54:32;17.80;;;4.85;;
57111;SDS011;42992;49.084;19.300;2023-07-13T04:56:57;7.28;;;4.10;;
57111;SDS011;42992;49.084;19.300;2023-07-13T04:59:23;5.82;;;2.85;;
57111;SDS011;42992;49.084;19.300;2023-07-13T05:01:48;5.55;;;3.00;;
57111;SDS011;42992;49.084;19.300;2023-07-13T05:04:13;5.90;;;3.05;;
57111;SDS011;42992;49.084;19.300;2023-07-13T05:06:38;6.60;;;3.08;;
57111;SDS011;42992;49.084;19.300;2023-07-13T05:09:04;6.38;;;2.90;;
57111;SDS011;42992;49.084;19.300;2023-07-13T05:11:29;7.53;;;2.83;;
57111;SDS011;42992;49.084;19.300;2023-07-13T05:13:54;9.65;;;3.60;;
57111;SDS011;42992;49.084;19.300;2023-07-13T05:16:20;7.00;;;3.08;;
57111;SDS011;42992;49.084;19.300;2023-07-13T05:18:45;5.68;;;3.20;;
57111;SDS011;42992;49.084;19.300;2023-07-13T05:21:10;6.05;;;3.28;;
57111;SDS011;42992;49.084;19.300;2023-07-13T05:23:37;6.53;;;3.47;;
57111;SDS011;42992;49.084;19.300;2023-07-13T05:26:03;4.00;;;2.25;;
57111;SDS011;42992;49.084;19.300;2023-07-13T05:28:29;5.25;;;2.90;;
57111;SDS011;42992;49.084;19.300;2023-07-13T05:30:55;6.55;;;2.90;;
57111;SDS011;42992;49.084;19.300;2023-07-13T05:33:20;5.22;;;2.35;;
57111;SDS011;42992;49.084;19.300;2023-07-13T05:35:45;5.63;;;2.40;;
57111;SDS011;42992;49.084;19.300;2023-07-13T05:38:11;9.38;;;3.08;;
57111;SDS011;42992;49.084;19.300;2023-07-13T05:40:37;5.05;;;2.63;;
57111;SDS011;42992;49.084;19.300;2023-07-13T05:43:02;4.63;;;2.80;;
57111;SDS011;42992;49.084;19.300;2023-07-13T05:45:27;4.28;;;2.38;;
57111;SDS011;42992;49.084;19.300;2023-07-13T05:47:53;6.53;;;2.92;;
57111;SDS011;42992;49.084;19.300;2023-07-13T05:50:18;5.65;;;2.80;;
57111;SDS011;42992;49.084;19.300;2023-07-13T05:52:43;5.38;;;2.78;;
57111;SDS011;42992;49.084;19.300;2023-07-13T05:55:09;6.82;;;2.70;;
57111;SDS011;42992;49.084;19.300;2023-07-13T05:57:34;8.65;;;3.47;;
57111;SDS011;42992;49.084;19.300;2023-07-13T05:59:59;5.90;;;3.00;;
57111;SDS011;42992;49.084;19.300;2023-07-13T06:02:25;6.13;;;2.72;;
57111;SDS011;42992;49.084;19.300;2023-07-13T06:04:51;7.18;;;2.90;;
57111;SDS011;42992;49.084;19.300;2023-07-13T06:07:16;5.25;;;3.05;;
57111;SDS011;42992;49.084;19.300;2023-07-13T06:09:42;6.10;;;3.10;;
57111;SDS011;42992;49.084;19.300;2023-07-13T06:12:07;7.50;;;3.47;;
57111;SDS011;42992;49.084;19.300;2023-07-13T06:14:32;9.75;;;3.00;;
57111;SDS011;42992;49.084;19.300;2023-07-13T06:16:57;5.07;;;2.70;;
57111;SDS011;42992;49.084;19.300;2023-07-13T06:19:23;6.90;;;3.03;;
57111;SDS011;42992;49.084;19.300;2023-07-13T06:21:48;7.33;;;3.37;;
57111;SDS011;42992;49.084;19.300;2023-07-13T06:24:13;5.90;;;3.00;;
57111;SDS011;42992;49.084;19.300;2023-07-13T06:26:38;4.55;;;3.13;;
57111;SDS011;42992;49.084;19.300;2023-07-13T06:29:04;6.05;;;2.70;;
57111;SDS011;42992;49.084;19.300;2023-07-13T06:31:32;6.30;;;3.28;;
57111;SDS011;42992;49.084;19.300;2023-07-13T06:33:57;6.75;;;3.42;;
57111;SDS011;42992;49.084;19.300;2023-07-13T06:36:22;8.77;;;3.20;;
57111;SDS011;42992;49.084;19.300;2023-07-13T06:38:48;6.68;;;2.47;;
57111;SDS011;42992;49.084;19.300;2023-07-13T06:41:13;4.72;;;2.90;;
57111;SDS011;42992;49.084;19.300;2023-07-13T06:43:38;5.00;;;2.65;;
57111;SDS011;42992;49.084;19.300;2023-07-13T06:46:04;4.30;;;2.50;;
57111;SDS011;42992;49.084;19.300;2023-07-13T06:48:29;9.57;;;2.80;;
57111;SDS011;42992;49.084;19.300;2023-07-13T06:50:55;7.13;;;3.10;;
57111;SDS011;42992;49.084;19.300;2023-07-13T06:53:21;4.18;;;2.50;;
57111;SDS011;42992;49.084;19.300;2023-07-13T06:55:47;4.65;;;2.70;;
57111;SDS011;42992;49.084;19.300;2023-07-13T06:58:14;5.50;;;2.70;;
57111;SDS011;42992;49.084;19.300;2023-07-13T07:00:39;6.72;;;2.65;;
57111;SDS011;42992;49.084;19.300;2023-07-13T07:03:05;6.70;;;3.10;;
57111;SDS011;42992;49.084;19.300;2023-07-13T07:05:30;7.07;;;3.60;;
57111;SDS011;42992;49.084;19.300;2023-07-13T07:07:56;6.22;;;3.40;;
57111;SDS011;42992;49.084;19.300;2023-07-13T07:10:21;5.63;;;2.70;;
57111;SDS011;42992;49.084;19.300;2023-07-13T07:12:47;4.70;;;2.55;;
57111;SDS011;42992;49.084;19.300;2023-07-13T07:15:12;9.05;;;3.20;;
57111;SDS011;42992;49.084;19.300;2023-07-13T07:17:38;6.97;;;3.95;;
57111;SDS011;42992;49.084;19.300;2023-07-13T07:20:03;5.50;;;3.10;;
57111;SDS011;42992;49.084;19.300;2023-07-13T07:22:29;6.88;;;3.13;;
57111;SDS011;42992;49.084;19.300;2023-07-13T07:24:55;5.75;;;2.40;;
57111;SDS011;42992;49.084;19.300;2023-07-13T07:27:20;8.57;;;3.50;;
57111;SDS011;42992;49.084;19.300;2023-07-13T07:29:46;5.35;;;2.95;;
57111;SDS011;42992;49.084;19.300;2023-07-13T07:32:11;4.85;;;2.80;;
57111;SDS011;42992;49.084;19.300;2023-07-13T07:34:36;7.32;;;3.20;;
57111;SDS011;42992;49.084;19.300;2023-07-13T07:37:01;6.20;;;3.20;;
57111;SDS011;42992;49.084;19.300;2023-07-13T07:39:27;6.68;;;3.08;;
57111;SDS011;42992;49.084;19.300;2023-07-13T07:41:52;7.27;;;3.20;;
57111;SDS011;42992;49.084;19.300;2023-07-13T07:44:17;9.02;;;2.92;;
57111;SDS011;42992;49.084;19.300;2023-07-13T07:46:43;9.27;;;3.58;;
57111;SDS011;42992;49.084;19.300;2023-07-13T07:49:08;7.05;;;2.95;;
57111;SDS011;42992;49.084;19.300;2023-07-13T07:51:33;12.32;;;4.13;;
57111;SDS011;42992;49.084;19.300;2023-07-13T07:53:59;7.93;;;3.50;;
57111;SDS011;42992;49.084;19.300;2023-07-13T07:56:24;8.73;;;3.95;;
57111;SDS011;42992;49.084;19.300;2023-07-13T07:58:50;8.40;;;3.25;;
57111;SDS011;42992;49.084;19.300;2023-07-13T08:01:15;7.38;;;3.30;;
57111;SDS011;42992;49.084;19.300;2023-07-13T08:03:41;5.28;;;3.47;;
57111;SDS011;42992;49.084;19.300;2023-07-13T08:06:06;6.13;;;3.30;;
57111;SDS011;42992;49.084;19.300;2023-07-13T08:08:31;6.78;;;3.58;;
57111;SDS011;42992;49.084;19.300;2023-07-13T08:10:56;7.15;;;3.20;;
57111;SDS011;42992;49.084;19.300;2023-07-13T08:13:22;5.63;;;3.35;;
57111;SDS011;42992;49.084;19.300;2023-07-13T08:15:47;7.77;;;3.60;;
57111;SDS011;42992;49.084;19.300;2023-07-13T08:18:13;6.22;;;3.58;;
57111;SDS011;42992;49.084;19.300;2023-07-13T08:20:38;5.78;;;3.83;;
57111;SDS011;42992;49.084;19.300;2023-07-13T08:23:04;7.60;;;3.88;;
57111;SDS011;42992;49.084;19.300;2023-07-13T08:25:29;7.30;;;4.50;;
57111;SDS011;42992;49.084;19.300;2023-07-13T08:27:54;5.68;;;4.32;;
57111;SDS011;42992;49.084;19.300;2023-07-13T08:30:19;6.85;;;4.25;;
57111;SDS011;42992;49.084;19.300;2023-07-13T08:32:45;8.02;;;4.70;;
57111;SDS011;42992;49.084;19.300;2023-07-13T08:35:10;7.32;;;5.20;;
57111;SDS011;42992;49.084;19.300;2023-07-13T08:37:35;6.63;;;5.07;;
57111;SDS011;42992;49.084;19.300;2023-07-13T08:40:00;10.30;;;5.25;;
57111;SDS011;42992;49.084;19.300;2023-07-13T08:42:45;8.38;;;5.65;;
57111;SDS011;42992;49.084;19.300;2023-07-13T08:47:38;8.20;;;5.70;;
57111;SDS011;42992;49.084;19.300;2023-07-13T08:50:04;8.20;;;5.60;;
57111;SDS011;42992;49.084;19.300;2023-07-13T08:52:35;6.35;;;5.28;;
57111;SDS011;42992;49.084;19.300;2023-07-13T08:55:03;8.48;;;5.85;;
57111;SDS011;42992;49.084;19.300;2023-07-13T08:57:31;7.90;;;5.43;;
57111;SDS011;42992;49.084;19.300;2023-07-13T08:59:58;8.40;;;6.25;;
57111;SDS011;42992;49.084;19.300;2023-07-13T09:07:24;6.07;;;5.10;;
57111;SDS011;42992;49.084;19.300;2023-07-13T09:15:05;9.13;;;5.75;;
57111;SDS011;42992;49.084;19.300;2023-07-13T09:17:35;6.22;;;4.82;;
57111;SDS011;42992;49.084;19.300;2023-07-13T09:20:06;9.60;;;5.45;;
57111;SDS011;42992;49.084;19.300;2023-07-13T09:22:35;6.20;;;5.10;;
57111;SDS011;42992;49.084;19.300;2023-07-13T09:27:41;6.88;;;4.57;;
57111;SDS011;42992;49.084;19.300;2023-07-13T09:32:36;6.18;;;4.70;;
57111;SDS011;42992;49.084;19.300;2023-07-13T09:35:05;5.97;;;3.97;;
57111;SDS011;42992;49.084;19.300;2023-07-13T09:37:34;5.97;;;3.80;;
57111;SDS011;42992;49.084;19.300;2023-07-13T09:40:00;5.72;;;4.18;;
57111;SDS011;42992;49.084;19.300;2023-07-13T09:42:26;5.13;;;3.58;;
57111;SDS011;42992;49.084;19.300;2023-07-13T09:47:19;6.53;;;3.95;;
57111;SDS011;42992;49.084;19.300;2023-07-13T09:49:44;4.43;;;3.22;;
57111;SDS011;42992;49.084;19.300;2023-07-13T09:52:11;5.82;;;3.65;;
57111;SDS011;42992;49.084;19.300;2023-07-13T09:54:36;5.15;;;3.92;;
57111;SDS011;42992;49.084;19.300;2023-07-13T09:57:03;4.70;;;3.40;;
57111;SDS011;42992;49.084;19.300;2023-07-13T09:59:30;6.32;;;3.80;;
57111;SDS011;42992;49.084;19.300;2023-07-13T10:01:56;7.65;;;3.80;;
57111;SDS011;42992;49.084;19.300;2023-07-13T10:04:26;6.13;;;3.63;;
57111;SDS011;42992;49.084;19.300;2023-07-13T10:06:51;5.10;;;3.50;;
57111;SDS011;42992;49.084;19.300;2023-07-13T10:09:29;5.88;;;3.83;;
57111;SDS011;42992;49.084;19.300;2023-07-13T10:11:54;5.90;;;3.17;;
57111;SDS011;42992;49.084;19.300;2023-07-13T10:14:20;4.97;;;2.90;;
57111;SDS011;42992;49.084;19.300;2023-07-13T10:16:48;4.70;;;3.17;;
57111;SDS011;42992;49.084;19.300;2023-07-13T10:19:22;4.18;;;2.80;;
57111;SDS011;42992;49.084;19.300;2023-07-13T10:21:56;4.43;;;3.00;;
57111;SDS011;42992;49.084;19.300;2023-07-13T10:24:27;4.88;;;2.90;;
57111;SDS011;42992;49.084;19.300;2023-07-13T10:27:29;7.47;;;3.72;;
57111;SDS011;42992;49.084;19.300;2023-07-13T10:32:11;4.70;;;3.23;;
57111;SDS011;42992;49.084;19.300;2023-07-13T10:34:37;4.50;;;3.17;;
57111;SDS011;42992;49.084;19.300;2023-07-13T10:37:02;5.32;;;3.58;;
57111;SDS011;42992;49.084;19.300;2023-07-13T10:39:30;4.25;;;3.00;;
57111;SDS011;42992;49.084;19.300;2023-07-13T10:41:57;6.40;;;3.42;;
57111;SDS011;42992;49.084;19.300;2023-07-13T10:44:25;8.52;;;3.53;;
57111;SDS011;42992;49.084;19.300;2023-07-13T10:46:54;7.68;;;3.47;;
57111;SDS011;42992;49.084;19.300;2023-07-13T10:49:20;6.82;;;3.35;;
57111;SDS011;42992;49.084;19.300;2023-07-13T10:51:46;5.88;;;3.28;;
57111;SDS011;42992;49.084;19.300;2023-07-13T10:54:22;5.30;;;3.95;;
57111;SDS011;42992;49.084;19.300;2023-07-13T10:59:35;9.25;;;3.58;;
57111;SDS011;42992;49.084;19.300;2023-07-13T11:02:09;5.85;;;3.97;;
57111;SDS011;42992;49.084;19.300;2023-07-13T11:04:42;5.53;;;2.40;;
57111;SDS011;42992;49.084;19.300;2023-07-13T11:07:28;5.53;;;2.90;;
57111;SDS011;42992;49.084;19.300;2023-07-13T11:09:55;4.45;;;2.30;;
57111;SDS011;42992;49.084;19.300;2023-07-13T11:17:24;4.15;;;2.33;;
57111;SDS011;42992;49.084;19.300;2023-07-13T11:19:51;4.85;;;2.45;;
57111;SDS011;42992;49.084;19.300;2023-07-13T11:22:17;7.20;;;2.42;;
57111;SDS011;42992;49.084;19.300;2023-07-13T11:24:54;5.18;;;2.78;;
57111;SDS011;42992;49.084;19.300;2023-07-13T11:29:46;9.48;;;3.45;;
57111;SDS011;42992;49.084;19.300;2023-07-13T11:32:23;5.53;;;3.20;;
57111;SDS011;42992;49.084;19.300;2023-07-13T11:34:51;4.47;;;2.67;;
57111;SDS011;42992;49.084;19.300;2023-07-13T11:37:18;5.03;;;2.60;;
57111;SDS011;42992;49.084;19.300;2023-07-13T11:39:44;5.18;;;2.67;;
57111;SDS011;42992;49.084;19.300;2023-07-13T11:42:13;5.90;;;3.13;;
57111;SDS011;42992;49.084;19.300;2023-07-13T11:44:45;5.78;;;3.10;;
57111;SDS011;42992;49.084;19.300;2023-07-13T11:47:11;5.97;;;3.20;;
57111;SDS011;42992;49.084;19.300;2023-07-13T11:49:48;4.18;;;2.97;;
57111;SDS011;42992;49.084;19.300;2023-07-13T11:52:19;6.75;;;2.92;;
57111;SDS011;42992;49.084;19.300;2023-07-13T11:54:52;5.80;;;3.30;;
57111;SDS011;42992;49.084;19.300;2023-07-13T11:59:51;5.68;;;3.20;;
57111;SDS011;42992;49.084;19.300;2023-07-13T12:04:51;7.25;;;3.75;;
57111;SDS011;42992;49.084;19.300;2023-07-13T12:07:18;12.18;;;3.90;;
57111;SDS011;42992;49.084;19.300;2023-07-13T12:09:43;6.45;;;3.80;;
57111;SDS011;42992;49.084;19.300;2023-07-13T12:12:10;8.32;;;3.85;;
57111;SDS011;42992;49.084;19.300;2023-07-13T12:14:36;8.13;;;3.78;;
57111;SDS011;42992;49.084;19.300;2023-07-13T12:17:01;8.02;;;3.85;;
57111;SDS011;42992;49.084;19.300;2023-07-13T12:19:29;5.18;;;3.70;;
57111;SDS011;42992;49.084;19.300;2023-07-13T12:21:57;6.32;;;3.58;;
57111;SDS011;42992;49.084;19.300;2023-07-13T12:24:23;5.82;;;3.35;;
57111;SDS011;42992;49.084;19.300;2023-07-13T12:26:59;4.32;;;2.95;;
57111;SDS011;42992;49.084;19.300;2023-07-13T12:29:25;5.07;;;3.28;;
57111;SDS011;42992;49.084;19.300;2023-07-13T12:31:51;5.43;;;3.15;;
57111;SDS011;42992;49.084;19.300;2023-07-13T12:34:21;7.57;;;2.70;;
57111;SDS011;42992;49.084;19.300;2023-07-13T12:39:18;3.58;;;2.40;;
57111;SDS011;42992;49.084;19.300;2023-07-13T12:41:44;3.60;;;2.40;;
57111;SDS011;42992;49.084;19.300;2023-07-13T12:44:14;4.70;;;2.42;;
57111;SDS011;42992;49.084;19.300;2023-07-13T12:46:39;3.70;;;2.03;;
57111;SDS011;42992;49.084;19.300;2023-07-13T12:49:16;3.33;;;1.42;;
57111;SDS011;42992;49.084;19.300;2023-07-13T12:51:42;2.13;;;1.10;;
57111;SDS011;42992;49.084;19.300;2023-07-13T12:54:13;3.53;;;1.33;;
57111;SDS011;42992;49.084;19.300;2023-07-13T12:56:39;4.25;;;1.30;;
57111;SDS011;42992;49.084;19.300;2023-07-13T12:59:05;3.00;;;1.40;;
57111;SDS011;42992;49.084;19.300;2023-07-13T13:01:32;3.13;;;1.80;;
57111;SDS011;42992;49.084;19.300;2023-07-13T13:04:01;4.47;;;1.58;;
57111;SDS011;42992;49.084;19.300;2023-07-13T13:06:29;4.43;;;1.65;;
57111;SDS011;42992;49.084;19.300;2023-07-13T13:08:56;2.67;;;1.42;;
57111;SDS011;42992;49.084;19.300;2023-07-13T13:11:23;2.63;;;1.33;;
57111;SDS011;42992;49.084;19.300;2023-07-13T13:13:49;2.60;;;1.40;;
57111;SDS011;42992;49.084;19.300;2023-07-13T13:18:41;2.77;;;1.50;;
57111;SDS011;42992;49.084;19.300;2023-07-13T13:21:06;3.00;;;1.70;;
57111;SDS011;42992;49.084;19.300;2023-07-13T13:23:32;2.88;;;1.45;;
57111;SDS011;42992;49.084;19.300;2023-07-13T13:25:57;2.67;;;1.35;;
57111;SDS011;42992;49.084;19.300;2023-07-13T13:28:23;2.90;;;1.10;;
57111;SDS011;42992;49.084;19.300;2023-07-13T13:30:49;2.78;;;1.40;;
57111;SDS011;42992;49.084;19.300;2023-07-13T13:33:16;2.38;;;1.10;;
57111;SDS011;42992;49.084;19.300;2023-07-13T13:35:42;3.25;;;1.58;;
57111;SDS011;42992;49.084;19.300;2023-07-13T13:38:12;4.45;;;1.27;;
57111;SDS011;42992;49.084;19.300;2023-07-13T13:40:39;2.75;;;1.40;;
57111;SDS011;42992;49.084;19.300;2023-07-13T13:43:10;3.03;;;1.52;;
57111;SDS011;42992;49.084;19.300;2023-07-13T13:51:03;8.45;;;1.30;;
57111;SDS011;42992;49.084;19.300;2023-07-13T13:53:35;5.93;;;1.38;;
57111;SDS011;42992;49.084;19.300;2023-07-13T13:56:00;2.83;;;1.33;;
57111;SDS011;42992;49.084;19.300;2023-07-13T13:58:25;4.90;;;1.20;;
57111;SDS011;42992;49.084;19.300;2023-07-13T14:00:51;2.53;;;1.00;;
57111;SDS011;42992;49.084;19.300;2023-07-13T14:03:17;3.42;;;1.30;;
57111;SDS011;42992;49.084;19.300;2023-07-13T14:05:43;2.47;;;1.30;;
57111;SDS011;42992;49.084;19.300;2023-07-13T14:08:13;3.22;;;1.00;;
57111;SDS011;42992;49.084;19.300;2023-07-13T14:10:39;2.20;;;1.10;;
57111;SDS011;42992;49.084;19.300;2023-07-13T14:13:04;4.22;;;1.35;;
57111;SDS011;42992;49.084;19.300;2023-07-13T14:15:33;3.72;;;1.30;;
57111;SDS011;42992;49.084;19.300;2023-07-13T14:17:59;2.72;;;1.20;;
57111;SDS011;42992;49.084;19.300;2023-07-13T14:20:24;1.88;;;1.10;;
57111;SDS011;42992;49.084;19.300;2023-07-13T14:22:51;3.08;;;1.23;;
57111;SDS011;42992;49.084;19.300;2023-07-13T14:25:17;3.38;;;1.00;;
57111;SDS011;42992;49.084;19.300;2023-07-13T14:27:43;3.35;;;1.10;;
57111;SDS011;42992;49.084;19.300;2023-07-13T14:30:13;1.60;;;0.90;;
57111;SDS011;42992;49.084;19.300;2023-07-13T14:32:39;3.38;;;1.20;;
57111;SDS011;42992;49.084;19.300;2023-07-13T14:35:04;3.38;;;1.10;;
57111;SDS011;42992;49.084;19.300;2023-07-13T14:37:30;2.03;;;0.98;;
57111;SDS011;42992;49.084;19.300;2023-07-13T14:39:55;6.32;;;1.08;;
57111;SDS011;42992;49.084;19.300;2023-07-13T14:42:21;3.15;;;1.20;;
57111;SDS011;42992;49.084;19.300;2023-07-13T14:44:46;2.03;;;1.10;;
57111;SDS011;42992;49.084;19.300;2023-07-13T14:47:11;4.50;;;1.38;;
57111;SDS011;42992;49.084;19.300;2023-07-13T14:49:40;3.33;;;1.15;;
57111;SDS011;42992;49.084;19.300;2023-07-13T14:52:17;5.38;;;1.10;;
57111;SDS011;42992;49.084;19.300;2023-07-13T14:54:42;2.70;;;1.20;;
57111;SDS011;42992;49.084;19.300;2023-07-13T14:57:27;2.33;;;1.00;;
57111;SDS011;42992;49.084;19.300;2023-07-13T14:59:52;2.83;;;1.23;;
57111;SDS011;42992;49.084;19.300;2023-07-13T15:02:27;2.38;;;1.25;;
57111;SDS011;42992;49.084;19.300;2023-07-13T15:04:54;2.65;;;1.30;;
57111;SDS011;42992;49.084;19.300;2023-07-13T15:07:19;2.60;;;1.20;;
57111;SDS011;42992;49.084;19.300;2023-07-13T15:09:45;4.38;;;1.38;;
57111;SDS011;42992;49.084;19.300;2023-07-13T15:12:12;3.08;;;1.40;;
57111;SDS011;42992;49.084;19.300;2023-07-13T15:14:37;3.15;;;1.40;;
57111;SDS011;42992;49.084;19.300;2023-07-13T15:17:03;2.88;;;1.33;;
57111;SDS011;42992;49.084;19.300;2023-07-13T15:19:28;2.90;;;1.30;;